Terminal Aerodrome Forecast
Issued by NWS

Home | Current Version | Previous Version | Text Only | Print | Product List | Glossary On
Versions: 1 2 3 4 5 6 7 8 9 10 11 12 13 14 15 16 17 18 19 20
000
FTUS43 KFGF 122326
TAFBJI
TAF
KBJI 122326Z 1300/1324 16005KT P6SM BKN008
     FM130300 15005KT P6SM BKN007
     FM130600 16005KT P6SM OVC003
     FM131800 33018G27KT P6SM OVC010
     FM132300 33010KT P6SM BKN010=

USA.gov is the U.S. government's official web portal to all federal, state and local government web resources and services.